<?xml version="1.0" encoding="UTF-8" standalone="no" ?>
<gpx xmlns="http://www.topografix.com/GPX/1/1" xmlns:xsi="http://www.w3.org/2001/XMLSchema-instance" xsi:schemaLocation="http://www.topografix.com/GPX/1/1 http://www.topografix.com/GPX/1/1/gpx.xsd" version="1.1" creator="VisuGPX - https://www.visugpx.com">
  <metadata>
    <name>Argentina</name>
    <desc><![CDATA[Downloaded from eMap Software Version 2.75]]></desc>
  </metadata>
  <trk>
    <name><![CDATA[Argentina_31]]></name>
    <extensions>
      <line xmlns="http://www.topografix.com/GPX/gpx_style/0/2">
        <color>ff0000</color>
        <opacity>0.78</opacity>
        <width>0.6000</width>
      </line>
    </extensions>
    <trkseg>
      <trkpt lat="-27.93868" lon="-63.8629">
        <ele>185.671753</ele>
        <time>2005-12-12T18:38:16Z</time>
      </trkpt>
      <trkpt lat="-27.93928" lon="-63.86247">
        <ele>185.671753</ele>
        <time>2005-12-12T18:38:33Z</time>
      </trkpt>
      <trkpt lat="-27.93937" lon="-63.86256">
        <ele>185.671753</ele>
        <time>2005-12-12T18:38:36Z</time>
      </trkpt>
      <trkpt lat="-27.93954" lon="-63.86174">
        <ele>186.152466</ele>
        <time>2005-12-12T18:38:47Z</time>
      </trkpt>
      <trkpt lat="-27.94027" lon="-63.86039">
        <ele>186.152466</ele>
        <time>2005-12-12T18:38:59Z</time>
      </trkpt>
      <trkpt lat="-27.94143" lon="-63.85829">
        <ele>186.633179</ele>
        <time>2005-12-12T18:39:13Z</time>
      </trkpt>
      <trkpt lat="-27.94298" lon="-63.85539">
        <ele>186.633179</ele>
        <time>2005-12-12T18:39:29Z</time>
      </trkpt>
      <trkpt lat="-27.94461" lon="-63.85239">
        <ele>186.633179</ele>
        <time>2005-12-12T18:39:44Z</time>
      </trkpt>
      <trkpt lat="-27.94619" lon="-63.84949">
        <ele>186.633179</ele>
        <time>2005-12-12T18:40:00Z</time>
      </trkpt>
      <trkpt lat="-27.94703" lon="-63.8479">
        <ele>186.633179</ele>
        <time>2005-12-12T18:40:11Z</time>
      </trkpt>
      <trkpt lat="-27.94763" lon="-63.84668">
        <ele>186.633179</ele>
        <time>2005-12-12T18:40:23Z</time>
      </trkpt>
      <trkpt lat="-27.94793" lon="-63.84615">
        <ele>186.633179</ele>
        <time>2005-12-12T18:40:35Z</time>
      </trkpt>
      <trkpt lat="-27.94806" lon="-63.84589">
        <ele>186.633179</ele>
        <time>2005-12-12T18:40:50Z</time>
      </trkpt>
      <trkpt lat="-27.94802" lon="-63.84595">
        <ele>187.11377</ele>
        <time>2005-12-12T18:41:22Z</time>
      </trkpt>
      <trkpt lat="-27.94797" lon="-63.84597">
        <ele>187.11377</ele>
        <time>2005-12-12T18:41:51Z</time>
      </trkpt>
      <trkpt lat="-27.94795" lon="-63.84608">
        <ele>187.11377</ele>
        <time>2005-12-12T18:42:17Z</time>
      </trkpt>
      <trkpt lat="-27.94845" lon="-63.8452">
        <ele>187.11377</ele>
        <time>2005-12-12T18:42:29Z</time>
      </trkpt>
      <trkpt lat="-27.94922" lon="-63.84376">
        <ele>187.11377</ele>
        <time>2005-12-12T18:42:41Z</time>
      </trkpt>
      <trkpt lat="-27.95044" lon="-63.84153">
        <ele>187.59436</ele>
        <time>2005-12-12T18:42:55Z</time>
      </trkpt>
      <trkpt lat="-27.9519" lon="-63.83885">
        <ele>187.59436</ele>
        <time>2005-12-12T18:43:09Z</time>
      </trkpt>
      <trkpt lat="-27.9543" lon="-63.83443">
        <ele>187.59436</ele>
        <time>2005-12-12T18:43:31Z</time>
      </trkpt>
      <trkpt lat="-27.95624" lon="-63.83087">
        <ele>188.075073</ele>
        <time>2005-12-12T18:43:48Z</time>
      </trkpt>
      <trkpt lat="-27.95866" lon="-63.82636">
        <ele>188.075073</ele>
        <time>2005-12-12T18:44:09Z</time>
      </trkpt>
      <trkpt lat="-27.96057" lon="-63.82284">
        <ele>188.075073</ele>
        <time>2005-12-12T18:44:24Z</time>
      </trkpt>
      <trkpt lat="-27.96632" lon="-63.81224">
        <ele>188.075073</ele>
        <time>2005-12-12T18:45:09Z</time>
      </trkpt>
    </trkseg>
  </trk>
</gpx>